sensor_id;sensor_type;location;lat;lon;timestamp;temperature;humidity
1411;DHT22;700;51.906;8.404;2022-07-04T00:02:53;19.70;99.90
1411;DHT22;700;51.906;8.404;2022-07-04T00:07:57;19.60;99.90
1411;DHT22;700;51.906;8.404;2022-07-04T00:12:57;19.40;99.90
1411;DHT22;700;51.906;8.404;2022-07-04T00:17:58;19.40;99.90
1411;DHT22;700;51.906;8.404;2022-07-04T00:22:59;19.50;99.90
1411;DHT22;700;51.906;8.404;2022-07-04T00:28:02;19.50;99.90
1411;DHT22;700;51.906;8.404;2022-07-04T00:33:03;19.20;99.90
1411;DHT22;700;51.906;8.404;2022-07-04T00:38:08;19.30;99.90
1411;DHT22;700;51.906;8.404;2022-07-04T00:43:09;19.30;99.90
1411;DHT22;700;51.906;8.404;2022-07-04T00:48:10;19.10;99.90
1411;DHT22;700;51.906;8.404;2022-07-04T00:53:14;19.20;99.90
1411;DHT22;700;51.906;8.404;2022-07-04T00:58:15;19.30;99.90
1411;DHT22;700;51.906;8.404;2022-07-04T01:03:19;19.20;99.90
1411;DHT22;700;51.906;8.404;2022-07-04T01:08:20;19.20;99.90
1411;DHT22;700;51.906;8.404;2022-07-04T01:13:22;19.10;99.90
1411;DHT22;700;51.906;8.404;2022-07-04T01:18:25;19.10;99.90
1411;DHT22;700;51.906;8.404;2022-07-04T01:23:26;19.10;99.90
1411;DHT22;700;51.906;8.404;2022-07-04T01:28:26;19.10;99.90
1411;DHT22;700;51.906;8.404;2022-07-04T01:33:30;19.00;99.90
1411;DHT22;700;51.906;8.404;2022-07-04T01:38:31;18.90;99.90
1411;DHT22;700;51.906;8.404;2022-07-04T01:43:34;18.90;99.90
1411;DHT22;700;51.906;8.404;2022-07-04T01:48:35;18.90;99.90
1411;DHT22;700;51.906;8.404;2022-07-04T01:53:36;18.90;99.90
1411;DHT22;700;51.906;8.404;2022-07-04T01:58:39;18.80;99.90
1411;DHT22;700;51.906;8.404;2022-07-04T02:03:40;18.70;99.90
1411;DHT22;700;51.906;8.404;2022-07-04T02:08:42;18.70;99.90
1411;DHT22;700;51.906;8.404;2022-07-04T02:14:04;18.60;99.90
1411;DHT22;700;51.906;8.404;2022-07-04T02:19:04;18.50;99.90
1411;DHT22;700;51.906;8.404;2022-07-04T02:24:07;18.60;99.90
1411;DHT22;700;51.906;8.404;2022-07-04T02:29:10;18.40;99.90
1411;DHT22;700;51.906;8.404;2022-07-04T02:34:13;18.30;99.90
1411;DHT22;700;51.906;8.404;2022-07-04T02:39:14;18.30;99.90
1411;DHT22;700;51.906;8.404;2022-07-04T02:44:17;18.30;99.90
1411;DHT22;700;51.906;8.404;2022-07-04T02:49:17;18.20;99.90
1411;DHT22;700;51.906;8.404;2022-07-04T02:54:18;18.00;99.90
1411;DHT22;700;51.906;8.404;2022-07-04T02:59:19;18.00;99.90
1411;DHT22;700;51.906;8.404;2022-07-04T03:04:19;18.00;99.90
1411;DHT22;700;51.906;8.404;2022-07-04T03:09:22;17.90;99.90
1411;DHT22;700;51.906;8.404;2022-07-04T03:14:23;17.80;99.90
1411;DHT22;700;51.906;8.404;2022-07-04T03:19:26;17.70;99.90
1411;DHT22;700;51.906;8.404;2022-07-04T03:24:27;17.90;99.90
1411;DHT22;700;51.906;8.404;2022-07-04T03:29:27;17.60;99.90
1411;DHT22;700;51.906;8.404;2022-07-04T03:34:31;17.60;99.90
1411;DHT22;700;51.906;8.404;2022-07-04T03:39:31;17.80;99.90
1411;DHT22;700;51.906;8.404;2022-07-04T03:44:32;17.70;99.90
1411;DHT22;700;51.906;8.404;2022-07-04T03:49:33;17.70;99.90
1411;DHT22;700;51.906;8.404;2022-07-04T03:54:33;17.70;99.90
1411;DHT22;700;51.906;8.404;2022-07-04T03:59:36;17.70;99.90
1411;DHT22;700;51.906;8.404;2022-07-04T04:04:39;17.50;99.90
1411;DHT22;700;51.906;8.404;2022-07-04T04:10:01;17.60;99.90
1411;DHT22;700;51.906;8.404;2022-07-04T04:15:04;17.40;99.90
1411;DHT22;700;51.906;8.404;2022-07-04T04:20:08;17.10;99.90
1411;DHT22;700;51.906;8.404;2022-07-04T04:25:11;17.30;99.90
1411;DHT22;700;51.906;8.404;2022-07-04T04:30:13;17.40;99.90
1411;DHT22;700;51.906;8.404;2022-07-04T04:35:13;17.50;99.90
1411;DHT22;700;51.906;8.404;2022-07-04T04:40:14;17.50;99.90
1411;DHT22;700;51.906;8.404;2022-07-04T04:45:17;17.50;99.90
1411;DHT22;700;51.906;8.404;2022-07-04T04:50:23;17.40;99.90
1411;DHT22;700;51.906;8.404;2022-07-04T04:55:26;17.50;99.90
1411;DHT22;700;51.906;8.404;2022-07-04T05:00:27;17.50;99.90
1411;DHT22;700;51.906;8.404;2022-07-04T05:05:27;17.90;99.90
1411;DHT22;700;51.906;8.404;2022-07-04T05:10:33;18.10;99.90
1411;DHT22;700;51.906;8.404;2022-07-04T05:15:33;18.30;99.90
1411;DHT22;700;51.906;8.404;2022-07-04T05:20:37;18.40;99.90
1411;DHT22;700;51.906;8.404;2022-07-04T05:25:37;18.40;99.90
1411;DHT22;700;51.906;8.404;2022-07-04T05:30:38;18.40;99.90
1411;DHT22;700;51.906;8.404;2022-07-04T05:35:41;18.40;99.90
1411;DHT22;700;51.906;8.404;2022-07-04T05:40:41;18.10;99.90
1411;DHT22;700;51.906;8.404;2022-07-04T05:45:42;18.20;99.90
1411;DHT22;700;51.906;8.404;2022-07-04T05:50:48;18.10;99.90
1411;DHT22;700;51.906;8.404;2022-07-04T05:55:48;18.20;99.90
1411;DHT22;700;51.906;8.404;2022-07-04T06:00:49;18.50;99.90
1411;DHT22;700;51.906;8.404;2022-07-04T06:05:51;18.20;99.90
1411;DHT22;700;51.906;8.404;2022-07-04T06:10:53;18.30;99.90
1411;DHT22;700;51.906;8.404;2022-07-04T06:15:54;18.20;99.90
1411;DHT22;700;51.906;8.404;2022-07-04T06:20:55;18.50;99.90
1411;DHT22;700;51.906;8.404;2022-07-04T06:25:56;18.80;99.90
1411;DHT22;700;51.906;8.404;2022-07-04T06:30:57;19.20;99.90
1411;DHT22;700;51.906;8.404;2022-07-04T06:36:00;19.20;99.90
1411;DHT22;700;51.906;8.404;2022-07-04T06:41:05;19.40;99.90
1411;DHT22;700;51.906;8.404;2022-07-04T06:46:06;19.70;99.90
1411;DHT22;700;51.906;8.404;2022-07-04T06:51:06;19.60;99.90
1411;DHT22;700;51.906;8.404;2022-07-04T06:56:07;19.40;99.90
1411;DHT22;700;51.906;8.404;2022-07-04T07:01:08;19.80;99.90
1411;DHT22;700;51.906;8.404;2022-07-04T07:06:09;20.30;99.90
1411;DHT22;700;51.906;8.404;2022-07-04T07:11:10;20.20;99.90
1411;DHT22;700;51.906;8.404;2022-07-04T07:16:19;20.20;99.90
1411;DHT22;700;51.906;8.404;2022-07-04T07:21:23;20.10;99.90
1411;DHT22;700;51.906;8.404;2022-07-04T07:26:24;20.50;99.90
1411;DHT22;700;51.906;8.404;2022-07-04T07:31:25;20.90;99.90
1411;DHT22;700;51.906;8.404;2022-07-04T07:36:25;20.60;99.90
1411;DHT22;700;51.906;8.404;2022-07-04T07:41:29;20.80;99.90
1411;DHT22;700;51.906;8.404;2022-07-04T07:46:31;21.40;99.90
1411;DHT22;700;51.906;8.404;2022-07-04T07:51:32;21.50;99.90
1411;DHT22;700;51.906;8.404;2022-07-04T07:56:35;21.60;99.90
1411;DHT22;700;51.906;8.404;2022-07-04T08:01:36;21.50;99.90
1411;DHT22;700;51.906;8.404;2022-07-04T08:06:42;21.90;99.90
1411;DHT22;700;51.906;8.404;2022-07-04T08:11:47;21.40;99.90
1411;DHT22;700;51.906;8.404;2022-07-04T08:16:48;21.50;99.90
1411;DHT22;700;51.906;8.404;2022-07-04T08:21:48;22.20;99.90
1411;DHT22;700;51.906;8.404;2022-07-04T08:26:49;22.80;99.90
1411;DHT22;700;51.906;8.404;2022-07-04T08:31:52;22.80;99.90
1411;DHT22;700;51.906;8.404;2022-07-04T08:36:52;22.70;99.90
1411;DHT22;700;51.906;8.404;2022-07-04T08:41:56;23.10;99.90
1411;DHT22;700;51.906;8.404;2022-07-04T08:47:00;23.30;99.90
1411;DHT22;700;51.906;8.404;2022-07-04T08:52:05;23.70;99.90
1411;DHT22;700;51.906;8.404;2022-07-04T08:57:07;24.10;99.90
1411;DHT22;700;51.906;8.404;2022-07-04T09:02:28;23.80;99.90
1411;DHT22;700;51.906;8.404;2022-07-04T09:07:29;23.80;99.90
1411;DHT22;700;51.906;8.404;2022-07-04T09:12:30;24.00;99.90
1411;DHT22;700;51.906;8.404;2022-07-04T09:17:33;24.30;99.90
1411;DHT22;700;51.906;8.404;2022-07-04T09:22:33;24.40;99.90
1411;DHT22;700;51.906;8.404;2022-07-04T09:27:35;24.50;99.40
1411;DHT22;700;51.906;8.404;2022-07-04T09:37:41;25.40;98.70
1411;DHT22;700;51.906;8.404;2022-07-04T09:42:49;25.80;97.40
1411;DHT22;700;51.906;8.404;2022-07-04T09:47:55;26.70;96.30
1411;DHT22;700;51.906;8.404;2022-07-04T09:52:58;27.50;94.30
1411;DHT22;700;51.906;8.404;2022-07-04T09:58:07;28.60;92.20
1411;DHT22;700;51.906;8.404;2022-07-04T10:03:22;29.10;87.50
1411;DHT22;700;51.906;8.404;2022-07-04T10:08:23;29.40;82.10
1411;DHT22;700;51.906;8.404;2022-07-04T10:13:24;29.80;75.70
1411;DHT22;700;51.906;8.404;2022-07-04T10:18:27;31.40;71.70
1411;DHT22;700;51.906;8.404;2022-07-04T10:23:28;32.40;64.80
1411;DHT22;700;51.906;8.404;2022-07-04T10:28:33;33.10;64.80
1411;DHT22;700;51.906;8.404;2022-07-04T10:33:34;33.60;58.90
1411;DHT22;700;51.906;8.404;2022-07-04T10:38:51;32.20;60.60
1411;DHT22;700;51.906;8.404;2022-07-04T10:44:01;34.90;58.00
1411;DHT22;700;51.906;8.404;2022-07-04T10:54:20;34.80;49.90
1411;DHT22;700;51.906;8.404;2022-07-04T10:59:28;38.90;46.30
1411;DHT22;700;51.906;8.404;2022-07-04T11:20:34;39.80;38.50
1411;DHT22;700;51.906;8.404;2022-07-04T11:25:38;43.30;34.60
1411;DHT22;700;51.906;8.404;2022-07-04T11:30:48;41.30;32.90
1411;DHT22;700;51.906;8.404;2022-07-04T11:36:05;38.70;34.60
1411;DHT22;700;51.906;8.404;2022-07-04T11:41:06;38.60;38.60
1411;DHT22;700;51.906;8.404;2022-07-04T11:46:25;42.90;34.70
1411;DHT22;700;51.906;8.404;2022-07-04T14:18:07;46.20;31.00
1411;DHT22;700;51.906;8.404;2022-07-04T14:23:14;31.60;39.90
1411;DHT22;700;51.906;8.404;2022-07-04T14:28:14;31.00;42.20
1411;DHT22;700;51.906;8.404;2022-07-04T14:33:15;31.20;42.20
1411;DHT22;700;51.906;8.404;2022-07-04T14:38:15;31.70;40.70
1411;DHT22;700;51.906;8.404;2022-07-04T14:43:17;31.80;40.80
1411;DHT22;700;51.906;8.404;2022-07-04T14:48:20;31.10;40.30
1411;DHT22;700;51.906;8.404;2022-07-04T14:53:21;31.20;39.40
1411;DHT22;700;51.906;8.404;2022-07-04T14:58:27;30.90;41.40
1411;DHT22;700;51.906;8.404;2022-07-04T15:03:27;30.60;40.60
1411;DHT22;700;51.906;8.404;2022-07-04T15:08:28;30.70;42.30
1411;DHT22;700;51.906;8.404;2022-07-04T15:13:29;30.70;41.60
1411;DHT22;700;51.906;8.404;2022-07-04T15:18:32;30.80;42.70
1411;DHT22;700;51.906;8.404;2022-07-04T15:23:33;30.40;43.30
1411;DHT22;700;51.906;8.404;2022-07-04T15:28:55;30.00;43.90
1411;DHT22;700;51.906;8.404;2022-07-04T15:33:58;29.60;44.20
1411;DHT22;700;51.906;8.404;2022-07-04T15:39:09;29.40;44.80
1411;DHT22;700;51.906;8.404;2022-07-04T15:44:10;28.70;45.90
1411;DHT22;700;51.906;8.404;2022-07-04T15:49:13;28.90;46.70
1411;DHT22;700;51.906;8.404;2022-07-04T15:54:13;29.30;47.70
1411;DHT22;700;51.906;8.404;2022-07-04T15:59:14;28.40;47.50
1411;DHT22;700;51.906;8.404;2022-07-04T16:04:15;29.00;47.20
1411;DHT22;700;51.906;8.404;2022-07-04T16:09:15;28.90;47.40
1411;DHT22;700;51.906;8.404;2022-07-04T16:14:22;27.60;49.20
1411;DHT22;700;51.906;8.404;2022-07-04T16:19:23;27.50;49.60
1411;DHT22;700;51.906;8.404;2022-07-04T16:24:24;27.50;49.40
1411;DHT22;700;51.906;8.404;2022-07-04T16:29:27;28.00;50.20
1411;DHT22;700;51.906;8.404;2022-07-04T16:34:28;27.70;48.90
1411;DHT22;700;51.906;8.404;2022-07-04T16:39:28;27.90;49.80
1411;DHT22;700;51.906;8.404;2022-07-04T16:44:29;28.00;50.50
1411;DHT22;700;51.906;8.404;2022-07-04T16:49:30;27.90;51.40
1411;DHT22;700;51.906;8.404;2022-07-04T16:54:33;28.00;51.10
1411;DHT22;700;51.906;8.404;2022-07-04T16:59:33;27.90;52.30
1411;DHT22;700;51.906;8.404;2022-07-04T17:04:34;28.10;52.30
1411;DHT22;700;51.906;8.404;2022-07-04T17:09:37;28.20;53.40
1411;DHT22;700;51.906;8.404;2022-07-04T17:14:38;28.00;52.70
1411;DHT22;700;51.906;8.404;2022-07-04T17:19:38;28.10;53.50
1411;DHT22;700;51.906;8.404;2022-07-04T17:24:39;28.30;52.30
1411;DHT22;700;51.906;8.404;2022-07-04T17:29:40;28.20;51.40
1411;DHT22;700;51.906;8.404;2022-07-04T17:34:43;27.80;53.10
1411;DHT22;700;51.906;8.404;2022-07-04T17:39:44;27.90;52.50
1411;DHT22;700;51.906;8.404;2022-07-04T17:44:45;27.40;52.80
1411;DHT22;700;51.906;8.404;2022-07-04T17:49:46;27.10;53.80
1411;DHT22;700;51.906;8.404;2022-07-04T17:54:47;27.00;55.30
1411;DHT22;700;51.906;8.404;2022-07-04T17:59:50;27.00;55.60
1411;DHT22;700;51.906;8.404;2022-07-04T18:04:53;26.80;56.90
1411;DHT22;700;51.906;8.404;2022-07-04T18:09:56;26.80;56.80
1411;DHT22;700;51.906;8.404;2022-07-04T18:14:57;26.80;57.50
1411;DHT22;700;51.906;8.404;2022-07-04T18:19:57;26.80;57.70
1411;DHT22;700;51.906;8.404;2022-07-04T18:24:58;26.60;57.50
1411;DHT22;700;51.906;8.404;2022-07-04T18:29:59;26.50;58.30
1411;DHT22;700;51.906;8.404;2022-07-04T18:35:02;26.20;59.30
1411;DHT22;700;51.906;8.404;2022-07-04T18:40:04;26.20;60.10
1411;DHT22;700;51.906;8.404;2022-07-04T18:45:27;26.00;61.10
1411;DHT22;700;51.906;8.404;2022-07-04T18:50:28;25.80;62.10
1411;DHT22;700;51.906;8.404;2022-07-04T18:55:29;25.80;63.60
1411;DHT22;700;51.906;8.404;2022-07-04T19:00:29;25.60;65.10
1411;DHT22;700;51.906;8.404;2022-07-04T19:05:30;25.40;65.30
1411;DHT22;700;51.906;8.404;2022-07-04T19:10:34;25.30;66.90
1411;DHT22;700;51.906;8.404;2022-07-04T19:15:36;25.10;67.70
1411;DHT22;700;51.906;8.404;2022-07-04T19:20:37;25.10;69.50
1411;DHT22;700;51.906;8.404;2022-07-04T19:25:38;24.90;70.60
1411;DHT22;700;51.906;8.404;2022-07-04T19:30:40;24.80;72.50
1411;DHT22;700;51.906;8.404;2022-07-04T19:35:41;24.80;73.30
1411;DHT22;700;51.906;8.404;2022-07-04T19:40:44;24.50;74.30
1411;DHT22;700;51.906;8.404;2022-07-04T19:45:47;24.40;75.90
1411;DHT22;700;51.906;8.404;2022-07-04T19:50:50;24.30;76.40
1411;DHT22;700;51.906;8.404;2022-07-04T19:55:50;24.10;78.70
1411;DHT22;700;51.906;8.404;2022-07-04T20:00:51;24.00;80.10
1411;DHT22;700;51.906;8.404;2022-07-04T20:05:52;23.90;83.20
1411;DHT22;700;51.906;8.404;2022-07-04T20:10:53;23.70;84.40
1411;DHT22;700;51.906;8.404;2022-07-04T20:15:56;23.60;85.10
1411;DHT22;700;51.906;8.404;2022-07-04T20:20:57;23.50;87.10
1411;DHT22;700;51.906;8.404;2022-07-04T20:25:57;23.50;88.90
1411;DHT22;700;51.906;8.404;2022-07-04T20:30:58;23.30;90.20
1411;DHT22;700;51.906;8.404;2022-07-04T20:35:59;23.20;91.00
1411;DHT22;700;51.906;8.404;2022-07-04T20:41:03;23.20;91.30
1411;DHT22;700;51.906;8.404;2022-07-04T20:46:03;23.00;92.30
1411;DHT22;700;51.906;8.404;2022-07-04T20:51:04;22.80;92.80
1411;DHT22;700;51.906;8.404;2022-07-04T20:56:05;22.80;93.50
1411;DHT22;700;51.906;8.404;2022-07-04T21:01:05;22.60;93.40
1411;DHT22;700;51.906;8.404;2022-07-04T21:06:07;22.60;93.80
1411;DHT22;700;51.906;8.404;2022-07-04T21:11:10;22.60;94.40
1411;DHT22;700;51.906;8.404;2022-07-04T21:16:10;22.40;95.20
1411;DHT22;700;51.906;8.404;2022-07-04T21:21:11;22.40;95.90
1411;DHT22;700;51.906;8.404;2022-07-04T21:26:12;22.10;96.40
1411;DHT22;700;51.906;8.404;2022-07-04T21:31:13;22.10;97.40
1411;DHT22;700;51.906;8.404;2022-07-04T21:36:15;22.00;98.00
1411;DHT22;700;51.906;8.404;2022-07-04T21:41:16;21.90;98.40
1411;DHT22;700;51.906;8.404;2022-07-04T21:46:17;21.80;99.50
1411;DHT22;700;51.906;8.404;2022-07-04T21:51:18;21.80;99.90
1411;DHT22;700;51.906;8.404;2022-07-04T21:56:18;21.70;99.90
1411;DHT22;700;51.906;8.404;2022-07-04T22:01:19;21.60;99.90
1411;DHT22;700;51.906;8.404;2022-07-04T22:06:20;21.50;99.90
1411;DHT22;700;51.906;8.404;2022-07-04T22:11:20;21.50;99.90
1411;DHT22;700;51.906;8.404;2022-07-04T22:16:21;21.40;99.90
1411;DHT22;700;51.906;8.404;2022-07-04T22:21:24;21.40;99.90
1411;DHT22;700;51.906;8.404;2022-07-04T22:26:27;21.20;99.90
1411;DHT22;700;51.906;8.404;2022-07-04T22:37:24;21.00;99.90
1411;DHT22;700;51.906;8.404;2022-07-04T22:42:25;20.90;99.90
1411;DHT22;700;51.906;8.404;2022-07-04T22:47:26;20.80;99.90
1411;DHT22;700;51.906;8.404;2022-07-04T22:52:29;20.70;99.90
1411;DHT22;700;51.906;8.404;2022-07-04T22:57:31;20.50;99.90
1411;DHT22;700;51.906;8.404;2022-07-04T23:02:31;20.50;99.90
1411;DHT22;700;51.906;8.404;2022-07-04T23:07:32;20.50;99.90
1411;DHT22;700;51.906;8.404;2022-07-04T23:12:36;20.40;99.90
1411;DHT22;700;51.906;8.404;2022-07-04T23:17:36;20.30;99.90
1411;DHT22;700;51.906;8.404;2022-07-04T23:22:37;20.30;99.90
1411;DHT22;700;51.906;8.404;2022-07-04T23:27:40;20.20;99.90
1411;DHT22;700;51.906;8.404;2022-07-04T23:32:43;20.00;99.90
1411;DHT22;700;51.906;8.404;2022-07-04T23:37:46;20.00;99.90
1411;DHT22;700;51.906;8.404;2022-07-04T23:42:49;19.90;99.90
1411;DHT22;700;51.906;8.404;2022-07-04T23:47:50;19.80;99.90
1411;DHT22;700;51.906;8.404;2022-07-04T23:52:50;19.60;99.90
1411;DHT22;700;51.906;8.404;2022-07-04T23:57:51;19.60;99.90
